sensor_id;sensor_type;location;lat;lon;timestamp;P1;durP1;ratioP1;P2;durP2;ratioP2
7253;SDS011;4060;49.186;9.226;2023-05-07T00:01:40;2.35;;;2.15;;
7253;SDS011;4060;49.186;9.226;2023-05-07T00:04:09;2.67;;;2.47;;
7253;SDS011;4060;49.186;9.226;2023-05-07T00:06:39;3.33;;;2.45;;
7253;SDS011;4060;49.186;9.226;2023-05-07T00:09:08;2.88;;;1.90;;
7253;SDS011;4060;49.186;9.226;2023-05-07T00:11:38;2.65;;;2.25;;
7253;SDS011;4060;49.186;9.226;2023-05-07T00:14:07;2.83;;;2.22;;
7253;SDS011;4060;49.186;9.226;2023-05-07T00:16:37;3.38;;;2.10;;
7253;SDS011;4060;49.186;9.226;2023-05-07T00:19:08;2.92;;;2.30;;
7253;SDS011;4060;49.186;9.226;2023-05-07T00:21:37;2.30;;;1.98;;
7253;SDS011;4060;49.186;9.226;2023-05-07T00:24:06;2.40;;;2.20;;
7253;SDS011;4060;49.186;9.226;2023-05-07T00:26:36;2.25;;;2.05;;
7253;SDS011;4060;49.186;9.226;2023-05-07T00:29:05;2.10;;;2.00;;
7253;SDS011;4060;49.186;9.226;2023-05-07T00:31:35;2.08;;;1.90;;
7253;SDS011;4060;49.186;9.226;2023-05-07T00:34:04;1.85;;;1.75;;
7253;SDS011;4060;49.186;9.226;2023-05-07T00:36:35;2.33;;;1.95;;
7253;SDS011;4060;49.186;9.226;2023-05-07T00:39:05;2.42;;;2.22;;
7253;SDS011;4060;49.186;9.226;2023-05-07T00:41:35;1.90;;;1.80;;
7253;SDS011;4060;49.186;9.226;2023-05-07T00:44:04;2.38;;;2.00;;
7253;SDS011;4060;49.186;9.226;2023-05-07T00:46:34;1.98;;;1.80;;
7253;SDS011;4060;49.186;9.226;2023-05-07T00:49:03;2.58;;;1.95;;
7253;SDS011;4060;49.186;9.226;2023-05-07T00:51:32;2.65;;;1.73;;
7253;SDS011;4060;49.186;9.226;2023-05-07T00:54:04;2.67;;;1.92;;
7253;SDS011;4060;49.186;9.226;2023-05-07T00:56:33;2.13;;;1.92;;
7253;SDS011;4060;49.186;9.226;2023-05-07T00:59:06;2.90;;;2.40;;
7253;SDS011;4060;49.186;9.226;2023-05-07T01:01:36;2.58;;;2.38;;
7253;SDS011;4060;49.186;9.226;2023-05-07T01:04:06;3.45;;;3.15;;
7253;SDS011;4060;49.186;9.226;2023-05-07T01:06:37;3.60;;;2.80;;
7253;SDS011;4060;49.186;9.226;2023-05-07T01:09:06;2.90;;;2.70;;
7253;SDS011;4060;49.186;9.226;2023-05-07T01:11:36;3.88;;;2.83;;
7253;SDS011;4060;49.186;9.226;2023-05-07T01:14:06;3.25;;;2.75;;
7253;SDS011;4060;49.186;9.226;2023-05-07T01:16:37;3.10;;;2.90;;
7253;SDS011;4060;49.186;9.226;2023-05-07T01:19:07;2.53;;;2.30;;
7253;SDS011;4060;49.186;9.226;2023-05-07T01:21:41;2.60;;;2.40;;
7253;SDS011;4060;49.186;9.226;2023-05-07T01:24:16;2.42;;;2.22;;
7253;SDS011;4060;49.186;9.226;2023-05-07T01:26:45;2.70;;;2.50;;
7253;SDS011;4060;49.186;9.226;2023-05-07T01:29:14;3.15;;;2.50;;
7253;SDS011;4060;49.186;9.226;2023-05-07T01:31:44;2.58;;;2.38;;
7253;SDS011;4060;49.186;9.226;2023-05-07T01:34:14;2.45;;;2.25;;
7253;SDS011;4060;49.186;9.226;2023-05-07T01:36:45;2.75;;;2.33;;
7253;SDS011;4060;49.186;9.226;2023-05-07T01:39:17;2.35;;;1.98;;
7253;SDS011;4060;49.186;9.226;2023-05-07T01:41:46;2.35;;;1.88;;
7253;SDS011;4060;49.186;9.226;2023-05-07T01:44:16;2.90;;;2.40;;
7253;SDS011;4060;49.186;9.226;2023-05-07T01:46:46;2.25;;;2.10;;
7253;SDS011;4060;49.186;9.226;2023-05-07T01:49:16;2.30;;;1.98;;
7253;SDS011;4060;49.186;9.226;2023-05-07T01:51:47;2.80;;;2.00;;
7253;SDS011;4060;49.186;9.226;2023-05-07T01:54:20;2.45;;;2.17;;
7253;SDS011;4060;49.186;9.226;2023-05-07T01:56:56;2.55;;;2.33;;
7253;SDS011;4060;49.186;9.226;2023-05-07T01:59:25;2.65;;;2.45;;
7253;SDS011;4060;49.186;9.226;2023-05-07T02:01:55;2.10;;;2.00;;
7253;SDS011;4060;49.186;9.226;2023-05-07T02:04:24;1.90;;;1.80;;
7253;SDS011;4060;49.186;9.226;2023-05-07T02:06:54;1.98;;;1.77;;
7253;SDS011;4060;49.186;9.226;2023-05-07T02:09:25;2.13;;;1.98;;
7253;SDS011;4060;49.186;9.226;2023-05-07T02:11:54;1.92;;;1.80;;
7253;SDS011;4060;49.186;9.226;2023-05-07T02:14:24;1.85;;;1.75;;
7253;SDS011;4060;49.186;9.226;2023-05-07T02:16:53;1.92;;;1.83;;
7253;SDS011;4060;49.186;9.226;2023-05-07T02:19:23;2.33;;;1.95;;
7253;SDS011;4060;49.186;9.226;2023-05-07T02:21:52;2.28;;;1.90;;
7253;SDS011;4060;49.186;9.226;2023-05-07T02:24:22;3.13;;;1.92;;
7253;SDS011;4060;49.186;9.226;2023-05-07T02:26:54;1.80;;;1.70;;
7253;SDS011;4060;49.186;9.226;2023-05-07T02:29:23;2.13;;;1.92;;
7253;SDS011;4060;49.186;9.226;2023-05-07T02:31:53;1.83;;;1.73;;
7253;SDS011;4060;49.186;9.226;2023-05-07T02:34:22;1.83;;;1.70;;
7253;SDS011;4060;49.186;9.226;2023-05-07T02:36:51;1.90;;;1.80;;
7253;SDS011;4060;49.186;9.226;2023-05-07T02:39:21;1.80;;;1.70;;
7253;SDS011;4060;49.186;9.226;2023-05-07T02:41:52;1.80;;;1.70;;
7253;SDS011;4060;49.186;9.226;2023-05-07T02:44:22;1.98;;;1.48;;
7253;SDS011;4060;49.186;9.226;2023-05-07T02:46:51;1.83;;;1.50;;
7253;SDS011;4060;49.186;9.226;2023-05-07T02:49:20;1.80;;;1.67;;
7253;SDS011;4060;49.186;9.226;2023-05-07T02:51:50;2.55;;;1.67;;
7253;SDS011;4060;49.186;9.226;2023-05-07T02:54:20;2.67;;;1.65;;
7253;SDS011;4060;49.186;9.226;2023-05-07T02:56:49;2.90;;;1.70;;
7253;SDS011;4060;49.186;9.226;2023-05-07T02:59:20;2.25;;;1.52;;
7253;SDS011;4060;49.186;9.226;2023-05-07T03:01:50;1.65;;;1.55;;
7253;SDS011;4060;49.186;9.226;2023-05-07T03:04:19;1.67;;;1.58;;
7253;SDS011;4060;49.186;9.226;2023-05-07T03:06:49;2.83;;;1.60;;
7253;SDS011;4060;49.186;9.226;2023-05-07T03:09:18;2.15;;;1.60;;
7253;SDS011;4060;49.186;9.226;2023-05-07T03:11:47;1.88;;;1.77;;
7253;SDS011;4060;49.186;9.226;2023-05-07T03:14:19;1.73;;;1.63;;
7253;SDS011;4060;49.186;9.226;2023-05-07T03:16:49;1.60;;;1.50;;
7253;SDS011;4060;49.186;9.226;2023-05-07T03:19:18;2.78;;;1.65;;
7253;SDS011;4060;49.186;9.226;2023-05-07T03:21:47;3.10;;;1.67;;
7253;SDS011;4060;49.186;9.226;2023-05-07T03:24:17;1.45;;;1.35;;
7253;SDS011;4060;49.186;9.226;2023-05-07T03:26:46;1.85;;;1.70;;
7253;SDS011;4060;49.186;9.226;2023-05-07T03:29:17;1.80;;;1.70;;
7253;SDS011;4060;49.186;9.226;2023-05-07T03:31:52;1.95;;;1.60;;
7253;SDS011;4060;49.186;9.226;2023-05-07T03:34:21;1.65;;;1.55;;
7253;SDS011;4060;49.186;9.226;2023-05-07T03:36:51;1.75;;;1.65;;
7253;SDS011;4060;49.186;9.226;2023-05-07T03:39:20;1.90;;;1.67;;
7253;SDS011;4060;49.186;9.226;2023-05-07T03:41:49;1.63;;;1.52;;
7253;SDS011;4060;49.186;9.226;2023-05-07T03:44:20;2.22;;;1.67;;
7253;SDS011;4060;49.186;9.226;2023-05-07T03:46:50;1.67;;;1.50;;
7253;SDS011;4060;49.186;9.226;2023-05-07T03:49:19;1.55;;;1.45;;
7253;SDS011;4060;49.186;9.226;2023-05-07T03:51:49;1.70;;;1.60;;
7253;SDS011;4060;49.186;9.226;2023-05-07T03:54:18;1.67;;;1.58;;
7253;SDS011;4060;49.186;9.226;2023-05-07T03:56:46;1.55;;;1.45;;
7253;SDS011;4060;49.186;9.226;2023-05-07T03:59:15;2.65;;;1.48;;
7253;SDS011;4060;49.186;9.226;2023-05-07T04:01:46;1.70;;;1.48;;
7253;SDS011;4060;49.186;9.226;2023-05-07T04:04:15;1.67;;;1.58;;
7253;SDS011;4060;49.186;9.226;2023-05-07T04:06:44;1.98;;;1.63;;
7253;SDS011;4060;49.186;9.226;2023-05-07T04:09:14;1.95;;;1.75;;
7253;SDS011;4060;49.186;9.226;2023-05-07T04:11:43;1.92;;;1.70;;
7253;SDS011;4060;49.186;9.226;2023-05-07T04:14:12;1.67;;;1.58;;
7253;SDS011;4060;49.186;9.226;2023-05-07T04:16:42;1.58;;;1.48;;
7253;SDS011;4060;49.186;9.226;2023-05-07T04:19:13;1.70;;;1.60;;
7253;SDS011;4060;49.186;9.226;2023-05-07T04:21:42;1.70;;;1.60;;
7253;SDS011;4060;49.186;9.226;2023-05-07T04:24:12;2.53;;;1.50;;
7253;SDS011;4060;49.186;9.226;2023-05-07T04:26:41;1.73;;;1.58;;
7253;SDS011;4060;49.186;9.226;2023-05-07T04:29:10;2.72;;;1.40;;
7253;SDS011;4060;49.186;9.226;2023-05-07T04:31:40;2.00;;;1.67;;
7253;SDS011;4060;49.186;9.226;2023-05-07T04:34:10;1.95;;;1.80;;
7253;SDS011;4060;49.186;9.226;2023-05-07T04:36:42;1.55;;;1.45;;
7253;SDS011;4060;49.186;9.226;2023-05-07T04:39:12;1.65;;;1.55;;
7253;SDS011;4060;49.186;9.226;2023-05-07T04:41:42;1.63;;;1.52;;
7253;SDS011;4060;49.186;9.226;2023-05-07T04:44:11;1.90;;;1.48;;
7253;SDS011;4060;49.186;9.226;2023-05-07T04:46:41;2.40;;;1.45;;
7253;SDS011;4060;49.186;9.226;2023-05-07T04:49:11;1.60;;;1.50;;
7253;SDS011;4060;49.186;9.226;2023-05-07T04:51:42;1.48;;;1.38;;
7253;SDS011;4060;49.186;9.226;2023-05-07T04:54:11;1.73;;;1.55;;
7253;SDS011;4060;49.186;9.226;2023-05-07T04:56:40;1.58;;;1.42;;
7253;SDS011;4060;49.186;9.226;2023-05-07T04:59:09;1.52;;;1.40;;
7253;SDS011;4060;49.186;9.226;2023-05-07T05:01:38;1.98;;;1.30;;
7253;SDS011;4060;49.186;9.226;2023-05-07T05:04:08;1.85;;;1.30;;
7253;SDS011;4060;49.186;9.226;2023-05-07T05:06:37;1.55;;;1.45;;
7253;SDS011;4060;49.186;9.226;2023-05-07T05:09:09;1.70;;;1.60;;
7253;SDS011;4060;49.186;9.226;2023-05-07T05:11:38;1.55;;;1.33;;
7253;SDS011;4060;49.186;9.226;2023-05-07T05:14:08;1.67;;;1.58;;
7253;SDS011;4060;49.186;9.226;2023-05-07T05:16:37;1.65;;;1.55;;
7253;SDS011;4060;49.186;9.226;2023-05-07T05:19:06;1.80;;;1.50;;
7253;SDS011;4060;49.186;9.226;2023-05-07T05:21:35;1.40;;;1.30;;
7253;SDS011;4060;49.186;9.226;2023-05-07T05:24:05;3.65;;;1.60;;
7253;SDS011;4060;49.186;9.226;2023-05-07T05:26:36;2.38;;;1.52;;
7253;SDS011;4060;49.186;9.226;2023-05-07T05:29:06;1.80;;;1.50;;
7253;SDS011;4060;49.186;9.226;2023-05-07T05:31:36;1.75;;;1.65;;
7253;SDS011;4060;49.186;9.226;2023-05-07T05:34:07;1.70;;;1.60;;
7253;SDS011;4060;49.186;9.226;2023-05-07T05:36:36;1.88;;;1.70;;
7253;SDS011;4060;49.186;9.226;2023-05-07T05:39:06;1.60;;;1.50;;
7253;SDS011;4060;49.186;9.226;2023-05-07T05:41:38;1.85;;;1.75;;
7253;SDS011;4060;49.186;9.226;2023-05-07T05:44:07;1.73;;;1.63;;
7253;SDS011;4060;49.186;9.226;2023-05-07T05:46:36;1.98;;;1.50;;
7253;SDS011;4060;49.186;9.226;2023-05-07T05:49:06;1.73;;;1.63;;
7253;SDS011;4060;49.186;9.226;2023-05-07T05:51:35;1.73;;;1.60;;
7253;SDS011;4060;49.186;9.226;2023-05-07T05:54:06;1.58;;;1.48;;
7253;SDS011;4060;49.186;9.226;2023-05-07T05:56:36;2.03;;;1.52;;
7253;SDS011;4060;49.186;9.226;2023-05-07T05:59:07;1.83;;;1.50;;
7253;SDS011;4060;49.186;9.226;2023-05-07T06:01:36;1.90;;;1.80;;
7253;SDS011;4060;49.186;9.226;2023-05-07T06:04:06;1.80;;;1.70;;
7253;SDS011;4060;49.186;9.226;2023-05-07T06:06:35;1.70;;;1.60;;
7253;SDS011;4060;49.186;9.226;2023-05-07T06:09:05;1.60;;;1.42;;
7253;SDS011;4060;49.186;9.226;2023-05-07T06:11:34;1.90;;;1.65;;
7253;SDS011;4060;49.186;9.226;2023-05-07T06:14:06;1.63;;;1.52;;
7253;SDS011;4060;49.186;9.226;2023-05-07T06:16:36;1.65;;;1.42;;
7253;SDS011;4060;49.186;9.226;2023-05-07T06:19:05;2.80;;;1.55;;
7253;SDS011;4060;49.186;9.226;2023-05-07T06:21:34;1.70;;;1.60;;
7253;SDS011;4060;49.186;9.226;2023-05-07T06:24:04;1.50;;;1.40;;
7253;SDS011;4060;49.186;9.226;2023-05-07T06:26:34;1.80;;;1.70;;
7253;SDS011;4060;49.186;9.226;2023-05-07T06:29:03;2.17;;;1.98;;
7253;SDS011;4060;49.186;9.226;2023-05-07T06:31:34;1.63;;;1.52;;
7253;SDS011;4060;49.186;9.226;2023-05-07T06:34:03;2.13;;;1.92;;
7253;SDS011;4060;49.186;9.226;2023-05-07T06:36:33;2.40;;;1.70;;
7253;SDS011;4060;49.186;9.226;2023-05-07T06:39:03;2.15;;;1.88;;
7253;SDS011;4060;49.186;9.226;2023-05-07T06:41:33;2.03;;;1.80;;
7253;SDS011;4060;49.186;9.226;2023-05-07T06:44:02;1.95;;;1.80;;
7253;SDS011;4060;49.186;9.226;2023-05-07T06:46:33;2.15;;;1.90;;
7253;SDS011;4060;49.186;9.226;2023-05-07T06:49:03;1.77;;;1.67;;
7253;SDS011;4060;49.186;9.226;2023-05-07T06:51:32;1.73;;;1.58;;
7253;SDS011;4060;49.186;9.226;2023-05-07T06:54:01;1.80;;;1.38;;
7253;SDS011;4060;49.186;9.226;2023-05-07T06:56:31;2.10;;;1.80;;
7253;SDS011;4060;49.186;9.226;2023-05-07T06:59:01;1.98;;;1.70;;
7253;SDS011;4060;49.186;9.226;2023-05-07T07:01:33;2.17;;;1.98;;
7253;SDS011;4060;49.186;9.226;2023-05-07T07:04:02;2.05;;;1.92;;
7253;SDS011;4060;49.186;9.226;2023-05-07T07:06:32;1.83;;;1.65;;
7253;SDS011;4060;49.186;9.226;2023-05-07T07:09:01;2.47;;;2.13;;
7253;SDS011;4060;49.186;9.226;2023-05-07T07:11:31;2.15;;;1.77;;
7253;SDS011;4060;49.186;9.226;2023-05-07T07:13:59;1.80;;;1.70;;
7253;SDS011;4060;49.186;9.226;2023-05-07T07:16:28;1.73;;;1.60;;
7253;SDS011;4060;49.186;9.226;2023-05-07T07:18:59;2.30;;;2.05;;
7253;SDS011;4060;49.186;9.226;2023-05-07T07:21:29;1.90;;;1.80;;
7253;SDS011;4060;49.186;9.226;2023-05-07T07:23:58;2.17;;;1.98;;
7253;SDS011;4060;49.186;9.226;2023-05-07T07:26:27;2.42;;;1.70;;
7253;SDS011;4060;49.186;9.226;2023-05-07T07:28:57;1.83;;;1.67;;
7253;SDS011;4060;49.186;9.226;2023-05-07T07:31:26;2.10;;;2.00;;
7253;SDS011;4060;49.186;9.226;2023-05-07T07:33:56;2.20;;;2.00;;
7253;SDS011;4060;49.186;9.226;2023-05-07T07:36:27;1.70;;;1.60;;
7253;SDS011;4060;49.186;9.226;2023-05-07T07:38:57;2.10;;;1.88;;
7253;SDS011;4060;49.186;9.226;2023-05-07T07:41:26;1.83;;;1.50;;
7253;SDS011;4060;49.186;9.226;2023-05-07T07:43:55;2.50;;;1.80;;
7253;SDS011;4060;49.186;9.226;2023-05-07T07:46:25;2.38;;;2.05;;
7253;SDS011;4060;49.186;9.226;2023-05-07T07:48:55;2.00;;;1.70;;
7253;SDS011;4060;49.186;9.226;2023-05-07T07:51:27;2.13;;;2.03;;
7253;SDS011;4060;49.186;9.226;2023-05-07T07:53:56;1.73;;;1.63;;
7253;SDS011;4060;49.186;9.226;2023-05-07T07:56:26;1.90;;;1.80;;
7253;SDS011;4060;49.186;9.226;2023-05-07T07:58:56;1.42;;;1.35;;
7253;SDS011;4060;49.186;9.226;2023-05-07T08:01:25;1.63;;;1.52;;
7253;SDS011;4060;49.186;9.226;2023-05-07T08:03:55;4.00;;;2.08;;
7253;SDS011;4060;49.186;9.226;2023-05-07T08:06:27;3.22;;;1.70;;
7253;SDS011;4060;49.186;9.226;2023-05-07T08:08:56;1.60;;;1.50;;
7253;SDS011;4060;49.186;9.226;2023-05-07T08:11:26;2.08;;;1.90;;
7253;SDS011;4060;49.186;9.226;2023-05-07T08:13:56;1.85;;;1.75;;
7253;SDS011;4060;49.186;9.226;2023-05-07T08:16:26;2.17;;;1.98;;
7253;SDS011;4060;49.186;9.226;2023-05-07T08:18:55;3.50;;;1.90;;
7253;SDS011;4060;49.186;9.226;2023-05-07T08:21:25;1.70;;;1.60;;
7253;SDS011;4060;49.186;9.226;2023-05-07T08:23:56;1.88;;;1.77;;
7253;SDS011;4060;49.186;9.226;2023-05-07T08:26:26;3.75;;;2.08;;
7253;SDS011;4060;49.186;9.226;2023-05-07T08:28:55;2.10;;;2.00;;
7253;SDS011;4060;49.186;9.226;2023-05-07T08:31:25;2.83;;;1.98;;
7253;SDS011;4060;49.186;9.226;2023-05-07T08:33:54;2.05;;;1.90;;
7253;SDS011;4060;49.186;9.226;2023-05-07T08:36:23;2.00;;;1.90;;
7253;SDS011;4060;49.186;9.226;2023-05-07T08:38:55;2.97;;;1.90;;
7253;SDS011;4060;49.186;9.226;2023-05-07T08:41:24;2.10;;;1.70;;
7253;SDS011;4060;49.186;9.226;2023-05-07T08:43:54;2.72;;;2.22;;
7253;SDS011;4060;49.186;9.226;2023-05-07T08:46:34;1.67;;;1.52;;
7253;SDS011;4060;49.186;9.226;2023-05-07T08:49:04;2.00;;;1.80;;
7253;SDS011;4060;49.186;9.226;2023-05-07T08:51:34;3.38;;;1.92;;
7253;SDS011;4060;49.186;9.226;2023-05-07T08:54:06;2.20;;;2.00;;
7253;SDS011;4060;49.186;9.226;2023-05-07T08:56:36;2.63;;;2.10;;
7253;SDS011;4060;49.186;9.226;2023-05-07T08:59:06;2.80;;;2.00;;
7253;SDS011;4060;49.186;9.226;2023-05-07T09:01:35;2.05;;;1.83;;
7253;SDS011;4060;49.186;9.226;2023-05-07T09:04:05;1.75;;;1.65;;
7253;SDS011;4060;49.186;9.226;2023-05-07T09:06:35;1.95;;;1.77;;
7253;SDS011;4060;49.186;9.226;2023-05-07T09:09:09;1.50;;;1.40;;
7253;SDS011;4060;49.186;9.226;2023-05-07T09:11:46;1.95;;;1.75;;
7253;SDS011;4060;49.186;9.226;2023-05-07T09:14:15;2.25;;;1.80;;
7253;SDS011;4060;49.186;9.226;2023-05-07T09:16:45;1.90;;;1.80;;
7253;SDS011;4060;49.186;9.226;2023-05-07T09:19:15;2.80;;;1.98;;
7253;SDS011;4060;49.186;9.226;2023-05-07T09:21:58;2.10;;;1.90;;
7253;SDS011;4060;49.186;9.226;2023-05-07T09:24:30;1.70;;;1.60;;
7253;SDS011;4060;49.186;9.226;2023-05-07T09:27:03;1.75;;;1.65;;
7253;SDS011;4060;49.186;9.226;2023-05-07T09:29:32;2.80;;;1.50;;
7253;SDS011;4060;49.186;9.226;2023-05-07T09:32:02;2.00;;;1.80;;
7253;SDS011;4060;49.186;9.226;2023-05-07T09:34:31;1.65;;;1.55;;
7253;SDS011;4060;49.186;9.226;2023-05-07T09:37:01;1.92;;;1.83;;
7253;SDS011;4060;49.186;9.226;2023-05-07T09:39:41;1.80;;;1.65;;
7253;SDS011;4060;49.186;9.226;2023-05-07T09:42:11;1.50;;;1.40;;
7253;SDS011;4060;49.186;9.226;2023-05-07T09:44:41;1.75;;;1.65;;
7253;SDS011;4060;49.186;9.226;2023-05-07T09:47:11;1.75;;;1.65;;
7253;SDS011;4060;49.186;9.226;2023-05-07T09:49:46;1.85;;;1.75;;
7253;SDS011;4060;49.186;9.226;2023-05-07T09:52:16;1.85;;;1.75;;
7253;SDS011;4060;49.186;9.226;2023-05-07T09:54:48;1.73;;;1.60;;
7253;SDS011;4060;49.186;9.226;2023-05-07T09:57:18;1.63;;;1.52;;
7253;SDS011;4060;49.186;9.226;2023-05-07T09:59:48;1.70;;;1.60;;
7253;SDS011;4060;49.186;9.226;2023-05-07T10:02:19;1.63;;;1.48;;
7253;SDS011;4060;49.186;9.226;2023-05-07T10:04:49;1.60;;;1.50;;
7253;SDS011;4060;49.186;9.226;2023-05-07T10:07:20;2.45;;;1.70;;
7253;SDS011;4060;49.186;9.226;2023-05-07T10:09:53;1.60;;;1.50;;
7253;SDS011;4060;49.186;9.226;2023-05-07T10:12:23;2.25;;;1.50;;
7253;SDS011;4060;49.186;9.226;2023-05-07T10:14:53;1.45;;;1.30;;
7253;SDS011;4060;49.186;9.226;2023-05-07T10:17:24;1.90;;;1.40;;
7253;SDS011;4060;49.186;9.226;2023-05-07T10:19:54;1.30;;;1.20;;
7253;SDS011;4060;49.186;9.226;2023-05-07T10:22:24;2.05;;;1.50;;
7253;SDS011;4060;49.186;9.226;2023-05-07T10:24:57;2.33;;;1.50;;
7253;SDS011;4060;49.186;9.226;2023-05-07T10:27:31;1.83;;;1.42;;
7253;SDS011;4060;49.186;9.226;2023-05-07T10:30:04;1.48;;;1.30;;
7253;SDS011;4060;49.186;9.226;2023-05-07T10:32:42;1.30;;;1.10;;
7253;SDS011;4060;49.186;9.226;2023-05-07T10:35:18;1.52;;;1.42;;
7253;SDS011;4060;49.186;9.226;2023-05-07T10:37:51;1.42;;;1.33;;
7253;SDS011;4060;49.186;9.226;2023-05-07T10:40:22;2.28;;;1.30;;
7253;SDS011;4060;49.186;9.226;2023-05-07T10:42:55;1.48;;;1.38;;
7253;SDS011;4060;49.186;9.226;2023-05-07T10:45:25;1.63;;;1.52;;
7253;SDS011;4060;49.186;9.226;2023-05-07T10:48:06;1.42;;;1.30;;
7253;SDS011;4060;49.186;9.226;2023-05-07T10:50:36;1.20;;;1.10;;
7253;SDS011;4060;49.186;9.226;2023-05-07T10:53:22;1.58;;;1.30;;
7253;SDS011;4060;49.186;9.226;2023-05-07T11:02:00;1.55;;;1.10;;
7253;SDS011;4060;49.186;9.226;2023-05-07T11:04:32;1.60;;;1.25;;
7253;SDS011;4060;49.186;9.226;2023-05-07T11:07:23;1.60;;;1.20;;
7253;SDS011;4060;49.186;9.226;2023-05-07T11:09:58;1.25;;;1.15;;
7253;SDS011;4060;49.186;9.226;2023-05-07T11:15:36;1.27;;;1.17;;
7253;SDS011;4060;49.186;9.226;2023-05-07T11:18:10;1.20;;;1.10;;
7253;SDS011;4060;49.186;9.226;2023-05-07T11:20:56;1.50;;;1.25;;
7253;SDS011;4060;49.186;9.226;2023-05-07T11:26:28;2.35;;;1.00;;
7253;SDS011;4060;49.186;9.226;2023-05-07T11:29:00;1.30;;;1.20;;
7253;SDS011;4060;49.186;9.226;2023-05-07T11:31:29;1.20;;;1.10;;
7253;SDS011;4060;49.186;9.226;2023-05-07T11:33:58;1.30;;;1.20;;
7253;SDS011;4060;49.186;9.226;2023-05-07T11:36:30;1.75;;;1.33;;
7253;SDS011;4060;49.186;9.226;2023-05-07T11:39:00;1.75;;;1.35;;
7253;SDS011;4060;49.186;9.226;2023-05-07T11:41:33;1.20;;;1.10;;
7253;SDS011;4060;49.186;9.226;2023-05-07T11:44:05;1.35;;;1.10;;
7253;SDS011;4060;49.186;9.226;2023-05-07T11:46:34;1.08;;;1.00;;
7253;SDS011;4060;49.186;9.226;2023-05-07T11:49:03;1.15;;;1.08;;
7253;SDS011;4060;49.186;9.226;2023-05-07T11:51:33;1.88;;;1.27;;
7253;SDS011;4060;49.186;9.226;2023-05-07T11:54:03;2.40;;;1.20;;
7253;SDS011;4060;49.186;9.226;2023-05-07T11:56:34;1.92;;;1.10;;
7253;SDS011;4060;49.186;9.226;2023-05-07T11:59:05;1.08;;;0.98;;
7253;SDS011;4060;49.186;9.226;2023-05-07T12:01:35;1.38;;;1.20;;
7253;SDS011;4060;49.186;9.226;2023-05-07T12:04:04;1.52;;;1.10;;
7253;SDS011;4060;49.186;9.226;2023-05-07T12:06:36;1.30;;;1.20;;
7253;SDS011;4060;49.186;9.226;2023-05-07T12:09:06;3.00;;;1.30;;
7253;SDS011;4060;49.186;9.226;2023-05-07T12:11:37;2.05;;;1.10;;
7253;SDS011;4060;49.186;9.226;2023-05-07T12:14:09;2.17;;;1.30;;
7253;SDS011;4060;49.186;9.226;2023-05-07T12:16:38;1.02;;;1.00;;
7253;SDS011;4060;49.186;9.226;2023-05-07T12:19:08;4.28;;;1.55;;
7253;SDS011;4060;49.186;9.226;2023-05-07T12:21:40;1.10;;;1.05;;
7253;SDS011;4060;49.186;9.226;2023-05-07T12:24:11;1.92;;;1.20;;
7253;SDS011;4060;49.186;9.226;2023-05-07T12:26:43;1.15;;;1.05;;
7253;SDS011;4060;49.186;9.226;2023-05-07T12:29:15;1.00;;;1.00;;
7253;SDS011;4060;49.186;9.226;2023-05-07T12:31:44;1.45;;;1.35;;
7253;SDS011;4060;49.186;9.226;2023-05-07T12:34:14;1.33;;;1.13;;
7253;SDS011;4060;49.186;9.226;2023-05-07T12:36:44;2.35;;;1.05;;
7253;SDS011;4060;49.186;9.226;2023-05-07T12:39:16;1.20;;;1.10;;
7253;SDS011;4060;49.186;9.226;2023-05-07T12:41:55;1.20;;;1.10;;
7253;SDS011;4060;49.186;9.226;2023-05-07T12:44:29;1.00;;;1.00;;
7253;SDS011;4060;49.186;9.226;2023-05-07T12:47:02;1.15;;;1.10;;
7253;SDS011;4060;49.186;9.226;2023-05-07T12:49:34;1.27;;;1.17;;
7253;SDS011;4060;49.186;9.226;2023-05-07T12:52:04;1.95;;;1.05;;
7253;SDS011;4060;49.186;9.226;2023-05-07T12:54:36;1.70;;;1.00;;
7253;SDS011;4060;49.186;9.226;2023-05-07T12:57:07;1.20;;;1.10;;
7253;SDS011;4060;49.186;9.226;2023-05-07T12:59:39;1.40;;;1.30;;
7253;SDS011;4060;49.186;9.226;2023-05-07T13:02:09;1.83;;;1.17;;
7253;SDS011;4060;49.186;9.226;2023-05-07T13:04:38;1.88;;;1.20;;
7253;SDS011;4060;49.186;9.226;2023-05-07T13:07:08;1.30;;;1.20;;
7253;SDS011;4060;49.186;9.226;2023-05-07T13:09:38;1.35;;;1.25;;
7253;SDS011;4060;49.186;9.226;2023-05-07T13:12:08;2.28;;;1.23;;
7253;SDS011;4060;49.186;9.226;2023-05-07T13:14:40;2.30;;;1.30;;
7253;SDS011;4060;49.186;9.226;2023-05-07T13:17:09;1.63;;;1.33;;
7253;SDS011;4060;49.186;9.226;2023-05-07T13:19:39;2.70;;;1.10;;
7253;SDS011;4060;49.186;9.226;2023-05-07T13:22:08;1.98;;;1.23;;
7253;SDS011;4060;49.186;9.226;2023-05-07T13:24:37;1.20;;;1.10;;
7253;SDS011;4060;49.186;9.226;2023-05-07T13:27:07;1.42;;;1.02;;
7253;SDS011;4060;49.186;9.226;2023-05-07T13:29:37;2.00;;;1.25;;
7253;SDS011;4060;49.186;9.226;2023-05-07T13:32:08;1.23;;;1.13;;
7253;SDS011;4060;49.186;9.226;2023-05-07T13:34:37;0.95;;;0.95;;
7253;SDS011;4060;49.186;9.226;2023-05-07T13:37:07;1.00;;;1.00;;
7253;SDS011;4060;49.186;9.226;2023-05-07T13:39:37;2.60;;;1.20;;
7253;SDS011;4060;49.186;9.226;2023-05-07T13:42:07;0.93;;;0.93;;
7253;SDS011;4060;49.186;9.226;2023-05-07T13:44:36;1.63;;;0.98;;
7253;SDS011;4060;49.186;9.226;2023-05-07T13:47:06;1.20;;;1.10;;
7253;SDS011;4060;49.186;9.226;2023-05-07T13:49:37;1.48;;;1.38;;
7253;SDS011;4060;49.186;9.226;2023-05-07T13:52:06;2.47;;;1.30;;
7253;SDS011;4060;49.186;9.226;2023-05-07T13:54:36;1.10;;;1.00;;
7253;SDS011;4060;49.186;9.226;2023-05-07T13:57:05;1.25;;;1.10;;
7253;SDS011;4060;49.186;9.226;2023-05-07T13:59:35;1.50;;;1.40;;
7253;SDS011;4060;49.186;9.226;2023-05-07T14:02:04;2.33;;;1.20;;
7253;SDS011;4060;49.186;9.226;2023-05-07T14:04:36;1.20;;;1.10;;
7253;SDS011;4060;49.186;9.226;2023-05-07T14:07:06;1.30;;;1.20;;
7253;SDS011;4060;49.186;9.226;2023-05-07T14:09:35;1.42;;;0.90;;
7253;SDS011;4060;49.186;9.226;2023-05-07T14:12:05;1.20;;;1.10;;
7253;SDS011;4060;49.186;9.226;2023-05-07T14:14:34;1.13;;;1.02;;
7253;SDS011;4060;49.186;9.226;2023-05-07T14:17:04;1.33;;;1.00;;
7253;SDS011;4060;49.186;9.226;2023-05-07T14:19:34;1.50;;;1.20;;
7253;SDS011;4060;49.186;9.226;2023-05-07T14:22:05;1.00;;;1.00;;
7253;SDS011;4060;49.186;9.226;2023-05-07T14:24:36;1.50;;;1.10;;
7253;SDS011;4060;49.186;9.226;2023-05-07T14:27:06;1.63;;;1.52;;
7253;SDS011;4060;49.186;9.226;2023-05-07T14:29:35;2.17;;;1.50;;
7253;SDS011;4060;49.186;9.226;2023-05-07T14:32:05;1.45;;;1.35;;
7253;SDS011;4060;49.186;9.226;2023-05-07T14:34:35;1.30;;;1.20;;
7253;SDS011;4060;49.186;9.226;2023-05-07T14:37:06;1.75;;;1.35;;
7253;SDS011;4060;49.186;9.226;2023-05-07T14:39:36;2.15;;;1.45;;
7253;SDS011;4060;49.186;9.226;2023-05-07T14:42:05;3.40;;;1.70;;
7253;SDS011;4060;49.186;9.226;2023-05-07T14:44:35;4.07;;;1.60;;
7253;SDS011;4060;49.186;9.226;2023-05-07T14:47:06;4.95;;;2.22;;
7253;SDS011;4060;49.186;9.226;2023-05-07T14:49:38;5.60;;;2.47;;
7253;SDS011;4060;49.186;9.226;2023-05-07T14:52:08;5.18;;;2.75;;
7253;SDS011;4060;49.186;9.226;2023-05-07T14:54:38;4.57;;;2.17;;
7253;SDS011;4060;49.186;9.226;2023-05-07T14:57:08;7.88;;;2.22;;
7253;SDS011;4060;49.186;9.226;2023-05-07T14:59:41;3.28;;;1.95;;
7253;SDS011;4060;49.186;9.226;2023-05-07T15:02:11;5.50;;;2.28;;
7253;SDS011;4060;49.186;9.226;2023-05-07T15:04:43;3.70;;;2.30;;
7253;SDS011;4060;49.186;9.226;2023-05-07T15:07:13;3.83;;;2.35;;
7253;SDS011;4060;49.186;9.226;2023-05-07T15:09:43;2.97;;;1.98;;
7253;SDS011;4060;49.186;9.226;2023-05-07T15:12:13;3.92;;;2.30;;
7253;SDS011;4060;49.186;9.226;2023-05-07T15:14:42;3.60;;;1.80;;
7253;SDS011;4060;49.186;9.226;2023-05-07T15:17:11;3.95;;;2.10;;
7253;SDS011;4060;49.186;9.226;2023-05-07T15:19:43;3.05;;;2.00;;
7253;SDS011;4060;49.186;9.226;2023-05-07T15:22:13;3.35;;;2.03;;
7253;SDS011;4060;49.186;9.226;2023-05-07T15:24:42;2.85;;;2.03;;
7253;SDS011;4060;49.186;9.226;2023-05-07T15:27:11;2.03;;;1.90;;
7253;SDS011;4060;49.186;9.226;2023-05-07T15:29:41;2.25;;;1.80;;
7253;SDS011;4060;49.186;9.226;2023-05-07T15:32:11;2.55;;;1.90;;
7253;SDS011;4060;49.186;9.226;2023-05-07T15:34:40;1.88;;;1.52;;
7253;SDS011;4060;49.186;9.226;2023-05-07T15:37:11;2.42;;;1.50;;
7253;SDS011;4060;49.186;9.226;2023-05-07T15:39:41;2.00;;;1.80;;
7253;SDS011;4060;49.186;9.226;2023-05-07T15:42:10;4.10;;;2.22;;
7253;SDS011;4060;49.186;9.226;2023-05-07T15:44:39;3.45;;;2.20;;
7253;SDS011;4060;49.186;9.226;2023-05-07T15:47:09;2.33;;;1.83;;